Pagrindinis puslapis
METAR-TAF:

METAR-TAF

Oro uostai :

Sigonella, Italija

platuma: 37-24N, ilguma: 014-55E, Aukštis: 22 m

Dabartinis oras

Ataskaita buvo paskelbta 39 minutes, ne 18:55 UTC
Vėjas 6 kt iš Vakarų/Pietvakarių
Temperatūra 20°C
Drėgmė 94%
Slėgis 1016 hPa
Matomumas: 8000 m
Mažai debesys ne aukštis 4000 ft
Išsisklaidę debesys ne aukštis 10000 ft

METAR: LICZ 191855Z 25006KT 8000 FEW040 SCT100 20/19 Q1016 RMK SCT VIS MIN 8000 WIND THR28 25005KT WIND THR10 25005KT A3002 BLU

Laikas: 21:34 (19:34 UTC)

Prognozė

Ataskaita buvo paskelbta 2 valandos ir 34 minutes, ne 17:00 UTC
Prognozė galioja nuo 19 metu 18 UTC su 20 metu 03 UTC
Vėjas 10 kt iš Vakarų
Matomumas 10 km arba daugiau
Išsisklaidę debesys ne aukštis 3000 ft
Išsisklaidę debesys ne aukštis 9000 ft
Laikinai
nuo 19 metu 18 UTC su 19 metu 19 UTC
Matomumas: 6000 m
Mažai debesys ne aukštis 1500 ft, Liūtiniai kamuoliniai debesys.
Su prošvaistėmis ne aukštis 3000 ft
perkūnija, lietus

TAF: LICZ 191700Z 1918/2003 26010KT 9999 SCT030 SCT090 TEMPO 1918/1919 6000 TSRA FEW015CB BKN030

Orai ataskaitas ir orų prognozės (METAR, TAF).

turimą stotys yra geltonos ir raudonos taškus žemėlapyje.

Perkelti pele per norėdami pamatyti stoties vardą.

Tada spustelėkite, norėdami matyti oro stebėjimo ir prognozės.

Norėdami pakeisti žemėlapį: spustelėkite ant žalios mygtukų su juodo kryžiaus žemyn,; žalią mygtuką su brūkšneliu, jei norite nutolinti; arba žalių rodyklių gretimoms žemėlapius.


METAR-TAF: